Time;durP1;ratioP1;P1;durP2;ratioP2;P2;SDS_P1;SDS_P2;PMS_P1;PMS_P2;Temp;Humidity;BMP_temperature;BMP_pressure;BME280_temperature;BME280_humidity;BME280_pressure;Samples;Min_cycle;Max_cycle;Signal;HPM_P1;HPM_P2
2024/02/12 00:02:18;;;;;;;14.40;8.70;;;;;;;;;;5093683;28;20423;-84
2024/02/12 00:04:44;;;;;;;15.47;8.67;;;;;;;;;;5094553;28;20454;-86
2024/02/12 00:07:10;;;;;;;11.07;7.10;;;;;;;;;;5093490;28;20413;-82
2024/02/12 00:09:36;;;;;;;12.20;7.07;;;;;;;;;;5093632;28;20408;-83
2024/02/12 00:12:02;;;;;;;11.80;8.13;;;;;;;;;;5094722;28;20417;-81
2024/02/12 00:14:28;;;;;;;13.20;7.90;;;;;;;;;;5094398;28;20477;-85
2024/02/12 00:16:54;;;;;;;10.87;6.90;;;;;;;;;;5093151;28;20778;-87
2024/02/12 00:19:22;;;;;;;9.63;7.90;;;;;;;;;;5093958;28;20421;-84
2024/02/12 00:21:48;;;;;;;10.90;7.30;;;;;;;;;;5094406;28;20401;-84
2024/02/12 00:24:15;;;;;;;12.37;6.73;;;;;;;;;;5094484;28;20912;-81
2024/02/12 00:26:47;;;;;;;11.80;7.83;;;;;;;;;;5093269;28;20432;-83
2024/02/12 00:29:16;;;;;;;11.27;6.70;;;;;;;;;;5094196;28;20417;-81
2024/02/12 00:31:43;;;;;;;13.00;7.00;;;;;;;;;;5092779;28;20909;-85
2024/02/12 00:34:09;;;;;;;8.83;6.27;;;;;;;;;;5092486;28;20500;-81
2024/02/12 00:36:35;;;;;;;12.77;7.90;;;;;;;;;;5094116;28;20414;-87
2024/02/12 00:39:09;;;;;;;13.77;8.37;;;;;;;;;;5094029;28;20420;-83
2024/02/12 00:41:35;;;;;;;12.93;7.53;;;;;;;;;;5094029;28;20415;-80
2024/02/12 00:44:03;;;;;;;9.67;7.60;;;;;;;;;;5092809;28;20416;-84
2024/02/12 00:46:29;;;;;;;14.53;9.70;;;;;;;;;;5093822;28;20503;-85
2024/02/12 00:48:56;;;;;;;11.70;8.87;;;;;;;;;;5093615;28;20440;-81
2024/02/12 00:51:22;;;;;;;11.97;7.40;;;;;;;;;;5092759;28;20788;-80
2024/02/12 00:53:48;;;;;;;14.60;9.77;;;;;;;;;;5093606;28;20814;-81
2024/02/12 00:56:17;;;;;;;15.87;8.80;;;;;;;;;;5102716;28;20428;-81
2024/02/12 00:58:45;;;;;;;13.80;8.50;;;;;;;;;;5114065;28;20405;-80
2024/02/12 01:01:11;;;;;;;11.90;8.90;;;;;;;;;;5095659;28;20557;-80
2024/02/12 01:03:37;;;;;;;15.60;10.17;;;;;;;;;;5113743;28;20435;-81
2024/02/12 01:06:03;;;;;;;16.23;9.10;;;;;;;;;;5113356;28;20406;-80
2024/02/12 01:08:29;;;;;;;16.63;11.63;;;;;;;;;;5113861;28;20502;-88
2024/02/12 01:10:55;;;;;;;16.60;9.67;;;;;;;;;;5113812;28;21143;-82
2024/02/12 01:13:21;;;;;;;17.83;10.73;;;;;;;;;;5113682;28;20408;-81
2024/02/12 01:15:50;;;;;;;15.17;10.30;;;;;;;;;;5095491;28;20427;-82
2024/02/12 01:18:17;;;;;;;13.30;8.20;;;;;;;;;;5113799;28;20437;-81
2024/02/12 01:20:44;;;;;;;14.50;8.57;;;;;;;;;;5113357;28;20409;-81
2024/02/12 01:23:12;;;;;;;13.77;9.30;;;;;;;;;;5113630;28;20423;-80
2024/02/12 01:25:41;;;;;;;14.97;9.87;;;;;;;;;;5113845;28;20456;-81
2024/02/12 01:28:07;;;;;;;17.07;10.47;;;;;;;;;;5113718;28;20461;-81
2024/02/12 01:30:34;;;;;;;14.87;10.17;;;;;;;;;;5113679;28;20451;-81
2024/02/12 01:33:02;;;;;;;16.63;10.57;;;;;;;;;;5113622;28;20411;-81
2024/02/12 01:35:27;;;;;;;17.00;11.17;;;;;;;;;;5113140;28;20519;-81
2024/02/12 01:37:53;;;;;;;13.90;9.67;;;;;;;;;;5113419;28;20450;-80
2024/02/12 01:40:19;;;;;;;14.57;9.83;;;;;;;;;;5113339;28;20902;-80
2024/02/12 01:42:45;;;;;;;16.80;9.00;;;;;;;;;;5113385;28;20553;-82
2024/02/12 01:45:11;;;;;;;16.57;11.33;;;;;;;;;;5113290;28;20915;-81
2024/02/12 01:47:41;;;;;;;16.93;10.50;;;;;;;;;;5094793;28;20458;-83
2024/02/12 01:50:08;;;;;;;21.70;10.73;;;;;;;;;;5112938;28;20502;-82
2024/02/12 01:52:34;;;;;;;19.63;9.80;;;;;;;;;;5113124;28;20469;-81
2024/02/12 01:55:02;;;;;;;20.40;10.40;;;;;;;;;;5113096;28;20468;-82
2024/02/12 01:57:29;;;;;;;17.30;10.17;;;;;;;;;;5113156;28;20503;-80
2024/02/12 01:59:56;;;;;;;19.67;11.17;;;;;;;;;;5113220;28;20395;-81
2024/02/12 02:02:22;;;;;;;16.43;10.43;;;;;;;;;;5113136;28;20420;-81
2024/02/12 02:04:47;;;;;;;19.53;10.17;;;;;;;;;;5112662;28;20405;-81
2024/02/12 02:07:19;;;;;;;19.93;11.10;;;;;;;;;;5094794;28;20447;-81
2024/02/12 02:09:46;;;;;;;19.17;11.23;;;;;;;;;;5112958;28;20410;-81
2024/02/12 02:12:12;;;;;;;19.63;11.70;;;;;;;;;;5112999;28;20463;-82
2024/02/12 02:14:38;;;;;;;25.80;11.83;;;;;;;;;;5112907;28;20467;-82
2024/02/12 02:17:05;;;;;;;17.77;11.00;;;;;;;;;;5112889;28;20417;-83
2024/02/12 02:19:32;;;;;;;17.03;11.50;;;;;;;;;;5114769;28;20454;-81
2024/02/12 02:21:58;;;;;;;19.47;11.40;;;;;;;;;;5117050;28;20836;-82
2024/02/12 02:24:24;;;;;;;19.47;11.53;;;;;;;;;;5116916;28;20497;-81
2024/02/12 02:26:50;;;;;;;20.43;10.93;;;;;;;;;;5098670;28;20427;-84
2024/02/12 02:29:16;;;;;;;18.37;10.87;;;;;;;;;;5116881;28;20417;-82
2024/02/12 02:31:42;;;;;;;24.17;11.23;;;;;;;;;;5117021;28;20418;-85
2024/02/12 02:34:08;;;;;;;14.33;9.93;;;;;;;;;;5116478;28;20669;-82
2024/02/12 02:36:34;;;;;;;18.47;11.13;;;;;;;;;;5098554;28;20940;-82
2024/02/12 02:39:03;;;;;;;18.27;11.00;;;;;;;;;;5116823;28;20423;-82
2024/02/12 02:41:29;;;;;;;17.50;10.97;;;;;;;;;;5116867;28;20407;-82
2024/02/12 02:43:55;;;;;;;17.57;10.40;;;;;;;;;;5117145;28;20514;-81
2024/02/12 02:46:26;;;;;;;15.70;10.70;;;;;;;;;;5116879;28;20451;-87
2024/02/12 02:48:53;;;;;;;14.70;9.00;;;;;;;;;;5116358;28;20421;-82
2024/02/12 02:51:29;;;;;;;18.07;9.87;;;;;;;;;;5116960;28;20735;-88
2024/02/12 02:53:55;;;;;;;19.30;12.07;;;;;;;;;;5117003;28;20782;-85
2024/02/12 02:56:22;;;;;;;17.30;11.57;;;;;;;;;;5117046;28;20462;-82
2024/02/12 02:58:49;;;;;;;19.57;11.30;;;;;;;;;;5117121;28;20467;-87
2024/02/12 03:01:15;;;;;;;14.53;9.27;;;;;;;;;;5117067;28;20420;-83
2024/02/12 03:03:41;;;;;;;11.70;8.07;;;;;;;;;;5116780;28;20418;-82
2024/02/12 03:06:07;;;;;;;18.67;10.47;;;;;;;;;;5116747;28;20420;-82
2024/02/12 03:08:34;;;;;;;18.30;9.70;;;;;;;;;;5116874;28;20759;-83
2024/02/12 03:11:01;;;;;;;18.77;10.13;;;;;;;;;;5116847;28;20458;-89
2024/02/12 03:13:27;;;;;;;16.20;10.03;;;;;;;;;;5116580;28;20506;-86
2024/02/12 03:15:56;;;;;;;16.63;9.00;;;;;;;;;;5116558;28;20428;-87
2024/02/12 03:18:23;;;;;;;15.50;8.90;;;;;;;;;;5116212;28;20408;-83
2024/02/12 03:20:50;;;;;;;15.80;9.80;;;;;;;;;;5097791;28;20411;-83
2024/02/12 03:23:16;;;;;;;17.67;9.57;;;;;;;;;;5098132;28;20407;-84
2024/02/12 03:25:42;;;;;;;17.73;9.50;;;;;;;;;;5116497;28;20813;-84
2024/02/12 03:28:09;;;;;;;15.03;9.43;;;;;;;;;;5116080;28;20493;-85
2024/02/12 03:30:35;;;;;;;14.93;9.20;;;;;;;;;;5097567;28;20178;-85
2024/02/12 03:33:02;;;;;;;17.10;11.00;;;;;;;;;;5116227;28;20408;-85
2024/02/12 03:35:28;;;;;;;16.87;10.70;;;;;;;;;;5115398;28;20295;-82
2024/02/12 03:37:55;;;;;;;15.90;10.67;;;;;;;;;;5115687;28;20867;-86
2024/02/12 03:40:26;;;;;;;19.90;10.10;;;;;;;;;;5115609;28;20410;-84
2024/02/12 03:42:52;;;;;;;17.20;11.00;;;;;;;;;;5115742;28;20405;-85
2024/02/12 03:45:19;;;;;;;23.37;12.93;;;;;;;;;;5115624;28;20472;-84
2024/02/12 03:47:47;;;;;;;20.33;10.77;;;;;;;;;;5096991;28;20460;-85
2024/02/12 04:01:21;;;;;;;19.63;12.60;;;;;;;;;;5115366;28;20827;-82
2024/02/12 04:03:49;;;;;;;20.17;12.63;;;;;;;;;;5114751;28;20912;-84
2024/02/12 04:06:15;;;;;;;23.93;14.00;;;;;;;;;;5115145;28;20409;-82
2024/02/12 04:08:42;;;;;;;22.00;12.13;;;;;;;;;;5115109;28;20496;-86
2024/02/12 04:11:08;;;;;;;19.77;12.20;;;;;;;;;;5114973;28;20446;-83
2024/02/12 04:13:34;;;;;;;23.90;14.67;;;;;;;;;;5115048;28;20390;-83
2024/02/12 04:16:02;;;;;;;21.90;13.03;;;;;;;;;;5097542;28;20425;-82
2024/02/12 04:18:31;;;;;;;22.63;12.47;;;;;;;;;;5097360;28;20912;-80
2024/02/12 04:20:59;;;;;;;24.30;13.90;;;;;;;;;;5114990;28;20421;-82
2024/02/12 04:23:25;;;;;;;28.40;14.23;;;;;;;;;;5122123;28;20404;-80
2024/02/12 04:25:51;;;;;;;25.00;13.73;;;;;;;;;;5096477;28;20774;-82
2024/02/12 04:28:21;;;;;;;20.30;13.97;;;;;;;;;;5114539;28;20401;-82
2024/02/12 04:30:47;;;;;;;20.70;11.90;;;;;;;;;;5115087;28;20411;-81
2024/02/12 04:33:16;;;;;;;29.20;15.80;;;;;;;;;;5114072;28;20795;-83
2024/02/12 04:35:45;;;;;;;29.10;15.93;;;;;;;;;;5114315;28;21064;-82
2024/02/12 04:38:11;;;;;;;26.03;14.70;;;;;;;;;;5114512;28;20515;-84
2024/02/12 04:40:37;;;;;;;30.80;16.40;;;;;;;;;;5114154;28;20511;-84
2024/02/12 04:43:04;;;;;;;25.47;16.17;;;;;;;;;;5113916;28;20487;-83
2024/02/12 04:45:32;;;;;;;26.50;14.80;;;;;;;;;;5114260;28;20416;-83
2024/02/12 04:47:58;;;;;;;23.27;14.83;;;;;;;;;;5112561;28;20854;-83
2024/02/12 04:50:25;;;;;;;26.30;14.83;;;;;;;;;;5102056;28;20425;-83
2024/02/12 04:52:51;;;;;;;30.17;16.30;;;;;;;;;;5092579;28;20190;-82
2024/02/12 04:55:17;;;;;;;29.43;15.87;;;;;;;;;;5093665;28;20880;-84
2024/02/12 04:57:43;;;;;;;32.30;17.03;;;;;;;;;;5092472;28;20526;-82
2024/02/12 05:00:10;;;;;;;26.37;15.47;;;;;;;;;;5092493;28;20498;-81
2024/02/12 05:02:37;;;;;;;31.60;16.17;;;;;;;;;;5093693;28;20747;-79
2024/02/12 05:05:05;;;;;;;31.63;17.10;;;;;;;;;;5093226;28;20554;-79
2024/02/12 05:07:31;;;;;;;28.20;14.83;;;;;;;;;;5093438;28;21031;-80
2024/02/12 05:10:09;;;;;;;29.30;15.40;;;;;;;;;;5093459;28;20429;-83
2024/02/12 05:12:35;;;;;;;28.57;16.20;;;;;;;;;;5093463;28;20715;-81
2024/02/12 05:15:02;;;;;;;26.90;15.43;;;;;;;;;;5093191;28;20473;-81
2024/02/12 05:17:41;;;;;;;30.73;17.53;;;;;;;;;;5093258;28;20416;-82
2024/02/12 05:22:52;;;;;;;25.07;14.90;;;;;;;;;;5093471;28;20443;-83
2024/02/12 05:25:19;;;;;;;30.13;16.60;;;;;;;;;;5093235;28;20410;-81
2024/02/12 05:27:46;;;;;;;34.20;17.50;;;;;;;;;;5093179;28;20409;-81
2024/02/12 05:30:13;;;;;;;35.20;18.13;;;;;;;;;;5093121;28;20471;-81
2024/02/12 05:32:39;;;;;;;36.50;18.07;;;;;;;;;;5093014;28;20409;-82
2024/02/12 05:35:05;;;;;;;33.90;16.10;;;;;;;;;;5092670;28;20751;-81
2024/02/12 05:37:33;;;;;;;33.63;17.40;;;;;;;;;;5093046;28;20806;-81
2024/02/12 05:39:59;;;;;;;39.40;19.00;;;;;;;;;;5092948;28;20425;-81
2024/02/12 05:42:25;;;;;;;40.13;19.63;;;;;;;;;;5094831;28;20782;-82
2024/02/12 05:44:51;;;;;;;35.30;18.30;;;;;;;;;;5113288;28;20424;-82
2024/02/12 05:47:18;;;;;;;29.70;16.33;;;;;;;;;;5094430;28;20467;-83
2024/02/12 05:49:44;;;;;;;31.10;17.90;;;;;;;;;;5112862;28;20171;-82
2024/02/12 05:52:11;;;;;;;30.10;15.30;;;;;;;;;;5094308;28;20891;-81
2024/02/12 05:54:37;;;;;;;28.00;16.07;;;;;;;;;;5113137;28;20467;-80
2024/02/12 05:57:04;;;;;;;28.47;17.03;;;;;;;;;;5113077;28;20434;-82
2024/02/12 05:59:32;;;;;;;33.17;16.87;;;;;;;;;;5112891;28;20420;-83
2024/02/12 06:01:59;;;;;;;29.37;15.60;;;;;;;;;;5112954;28;20439;-81
2024/02/12 06:04:25;;;;;;;37.17;18.27;;;;;;;;;;5112593;28;20763;-82
2024/02/12 06:06:51;;;;;;;30.80;16.27;;;;;;;;;;5113126;28;20499;-82
2024/02/12 06:09:17;;;;;;;34.97;16.43;;;;;;;;;;5109687;28;20413;-82
2024/02/12 06:11:43;;;;;;;31.40;16.57;;;;;;;;;;5101247;28;20419;-82
2024/02/12 06:14:09;;;;;;;35.67;16.80;;;;;;;;;;5102328;28;20464;-83
2024/02/12 06:16:37;;;;;;;32.40;16.40;;;;;;;;;;5097923;28;20413;-81
2024/02/12 06:19:03;;;;;;;36.37;18.87;;;;;;;;;;5090081;28;20517;-82
2024/02/12 06:21:30;;;;;;;35.80;17.90;;;;;;;;;;5091930;28;20551;-83
2024/02/12 06:23:56;;;;;;;31.70;18.30;;;;;;;;;;5092005;28;20853;-82
2024/02/12 06:26:22;;;;;;;35.67;18.27;;;;;;;;;;5092238;28;20921;-82
2024/02/12 06:28:49;;;;;;;33.70;17.50;;;;;;;;;;5091262;28;20417;-83
2024/02/12 06:31:15;;;;;;;39.53;19.80;;;;;;;;;;5091392;28;20420;-81
2024/02/12 06:33:41;;;;;;;38.80;18.87;;;;;;;;;;5090903;28;20960;-85
2024/02/12 06:36:07;;;;;;;38.53;18.77;;;;;;;;;;5092588;28;20422;-80
2024/02/12 06:38:33;;;;;;;39.03;18.80;;;;;;;;;;5091244;28;20440;-80
2024/02/12 06:41:00;;;;;;;43.07;20.90;;;;;;;;;;5092453;28;20435;-81
2024/02/12 06:43:26;;;;;;;37.73;19.03;;;;;;;;;;5092463;28;20409;-81
2024/02/12 06:45:51;;;;;;;41.00;18.57;;;;;;;;;;5092393;28;20485;-82
2024/02/12 06:48:17;;;;;;;41.50;21.50;;;;;;;;;;5092179;28;20409;-82
2024/02/12 06:50:44;;;;;;;44.57;21.40;;;;;;;;;;5092488;28;20769;-82
2024/02/12 06:53:10;;;;;;;43.67;21.53;;;;;;;;;;5092574;28;20528;-83
2024/02/12 06:55:36;;;;;;;40.70;21.27;;;;;;;;;;5092209;28;20472;-82
2024/02/12 06:58:02;;;;;;;48.13;22.57;;;;;;;;;;5091981;28;20434;-84
2024/02/12 07:00:31;;;;;;;49.30;22.80;;;;;;;;;;5090761;28;20467;-83
2024/02/12 07:02:59;;;;;;;48.93;24.20;;;;;;;;;;5091648;28;20410;-81
2024/02/12 07:05:25;;;;;;;47.30;23.03;;;;;;;;;;5094230;28;20471;-81
2024/02/12 07:07:51;;;;;;;43.57;21.40;;;;;;;;;;5095716;28;20410;-81
2024/02/12 07:10:17;;;;;;;44.00;22.53;;;;;;;;;;5095659;28;20961;-83
2024/02/12 07:12:43;;;;;;;40.40;21.07;;;;;;;;;;5095810;28;20416;-82
2024/02/12 07:15:10;;;;;;;48.87;22.23;;;;;;;;;;5095532;28;20995;-81
2024/02/12 07:17:36;;;;;;;49.67;24.17;;;;;;;;;;5095169;28;20412;-82
2024/02/12 07:20:04;;;;;;;48.63;22.20;;;;;;;;;;5095485;28;20411;-80
2024/02/12 07:22:30;;;;;;;51.50;23.67;;;;;;;;;;5095545;28;20417;-81
2024/02/12 07:24:55;;;;;;;50.13;23.00;;;;;;;;;;5095478;28;20470;-80
2024/02/12 07:27:21;;;;;;;57.13;25.87;;;;;;;;;;5095524;28;20402;-82
2024/02/12 07:29:55;;;;;;;49.33;22.77;;;;;;;;;;5095481;28;20487;-81
2024/02/12 07:32:24;;;;;;;47.23;21.80;;;;;;;;;;5095331;28;20413;-81
2024/02/12 07:34:59;;;;;;;41.60;22.90;;;;;;;;;;5094920;28;20473;-80
2024/02/12 07:37:25;;;;;;;46.37;22.27;;;;;;;;;;5094398;28;20408;-80
2024/02/12 07:39:51;;;;;;;45.90;19.90;;;;;;;;;;5094330;28;20424;-79
2024/02/12 07:42:17;;;;;;;39.43;19.70;;;;;;;;;;5095326;28;20405;-79
2024/02/12 07:44:44;;;;;;;42.30;19.57;;;;;;;;;;5093903;28;20428;-78
2024/02/12 07:47:11;;;;;;;49.00;20.90;;;;;;;;;;5095080;28;20475;-79
2024/02/12 07:49:37;;;;;;;39.47;19.13;;;;;;;;;;5094802;28;20443;-79
2024/02/12 07:52:04;;;;;;;39.30;18.07;;;;;;;;;;5095144;28;20449;-80
2024/02/12 07:54:30;;;;;;;34.37;17.80;;;;;;;;;;5094944;28;20560;-78
2024/02/12 07:56:57;;;;;;;34.33;18.57;;;;;;;;;;5093743;28;20417;-78
2024/02/12 07:59:24;;;;;;;39.70;18.40;;;;;;;;;;5095065;28;20558;-78
2024/02/12 08:01:51;;;;;;;40.67;19.27;;;;;;;;;;5094906;28;20759;-78
2024/02/12 08:04:19;;;;;;;42.77;18.00;;;;;;;;;;5093148;28;20425;-79
2024/02/12 08:06:45;;;;;;;35.70;18.30;;;;;;;;;;5095176;28;20441;-80
2024/02/12 08:09:11;;;;;;;39.17;18.47;;;;;;;;;;5094887;28;20440;-87
2024/02/12 08:11:40;;;;;;;32.07;15.10;;;;;;;;;;5094985;28;20917;-84
2024/02/12 08:14:09;;;;;;;30.27;15.50;;;;;;;;;;5095054;28;20449;-82
2024/02/12 08:16:35;;;;;;;29.73;15.07;;;;;;;;;;5093770;28;20449;-87
2024/02/12 08:19:01;;;;;;;33.67;16.10;;;;;;;;;;5094654;28;20410;-80
2024/02/12 08:21:27;;;;;;;32.40;16.40;;;;;;;;;;5094745;28;20410;-86
2024/02/12 08:23:53;;;;;;;29.83;15.73;;;;;;;;;;5094793;28;20428;-86
2024/02/12 08:26:21;;;;;;;32.83;15.47;;;;;;;;;;5093445;28;20901;-88
2024/02/12 08:28:47;;;;;;;35.90;16.03;;;;;;;;;;5094948;28;20418;-80
2024/02/12 08:31:17;;;;;;;33.17;16.80;;;;;;;;;;5094524;28;20902;-80
2024/02/12 08:33:43;;;;;;;41.20;18.00;;;;;;;;;;5094392;28;20414;-87
2024/02/12 08:36:09;;;;;;;29.47;16.27;;;;;;;;;;5095215;28;20685;-84
2024/02/12 08:38:39;;;;;;;30.43;16.10;;;;;;;;;;5094760;28;20854;-85
2024/02/12 08:41:04;;;;;;;27.07;14.37;;;;;;;;;;5094783;28;20414;-83
2024/02/12 08:43:30;;;;;;;27.57;15.67;;;;;;;;;;5094544;28;20966;-86
2024/02/12 08:45:57;;;;;;;31.80;15.13;;;;;;;;;;5094256;28;20922;-86
2024/02/12 08:48:23;;;;;;;26.33;13.53;;;;;;;;;;5094225;28;20780;-87
2024/02/12 08:50:49;;;;;;;25.80;15.00;;;;;;;;;;5094805;28;20416;-85
2024/02/12 08:53:15;;;;;;;24.70;12.37;;;;;;;;;;5094640;28;20452;-78
2024/02/12 08:55:41;;;;;;;28.40;13.47;;;;;;;;;;5076330;28;20467;-83
2024/02/12 08:58:10;;;;;;;24.97;13.30;;;;;;;;;;5094357;28;20407;-85
2024/02/12 09:00:36;;;;;;;26.83;14.30;;;;;;;;;;5094242;28;20455;-79
2024/02/12 09:03:04;;;;;;;24.50;13.60;;;;;;;;;;5095477;28;20411;-79
2024/02/12 09:05:30;;;;;;;22.00;13.13;;;;;;;;;;5094367;28;20777;-80
2024/02/12 09:07:56;;;;;;;24.83;13.03;;;;;;;;;;5094256;28;20404;-78
2024/02/12 09:10:22;;;;;;;25.30;12.77;;;;;;;;;;5093102;28;20819;-81
2024/02/12 09:12:49;;;;;;;21.30;12.87;;;;;;;;;;5094753;28;20446;-79
2024/02/12 09:15:16;;;;;;;25.20;12.20;;;;;;;;;;5096658;28;20959;-82
2024/02/12 09:17:44;;;;;;;23.67;13.67;;;;;;;;;;5096155;28;20492;-83
2024/02/12 09:20:14;;;;;;;18.73;12.00;;;;;;;;;;5096749;28;20443;-80
2024/02/12 09:22:40;;;;;;;22.67;13.27;;;;;;;;;;5096158;28;20402;-81
2024/02/12 09:25:09;;;;;;;23.13;11.53;;;;;;;;;;5095232;28;20418;-88
2024/02/12 09:27:35;;;;;;;22.93;12.97;;;;;;;;;;5095270;28;20499;-78
2024/02/12 09:30:06;;;;;;;19.70;13.30;;;;;;;;;;5096660;28;20435;-81
2024/02/12 09:32:33;;;;;;;20.33;11.40;;;;;;;;;;5097228;28;20474;-82
2024/02/12 09:34:59;;;;;;;22.93;12.60;;;;;;;;;;5095473;28;20493;-77
2024/02/12 09:37:29;;;;;;;29.20;12.83;;;;;;;;;;5093007;28;20810;-85
2024/02/12 09:39:55;;;;;;;27.40;13.27;;;;;;;;;;5092999;28;20795;-87
2024/02/12 09:42:22;;;;;;;17.63;10.27;;;;;;;;;;5092947;28;20414;-87
2024/02/12 09:44:48;;;;;;;18.73;11.13;;;;;;;;;;5093110;28;20781;-87
2024/02/12 09:47:18;;;;;;;22.20;12.03;;;;;;;;;;5092482;28;20489;-84
2024/02/12 09:49:44;;;;;;;19.37;10.27;;;;;;;;;;5092949;28;20410;-82
2024/02/12 09:52:12;;;;;;;18.23;11.17;;;;;;;;;;5091687;28;20514;-78
2024/02/12 09:54:39;;;;;;;20.73;10.47;;;;;;;;;;5092893;28;20531;-78
2024/02/12 09:57:04;;;;;;;18.20;11.37;;;;;;;;;;5092835;28;20455;-82
2024/02/12 09:59:32;;;;;;;17.30;10.93;;;;;;;;;;5092838;28;20407;-79
2024/02/12 10:01:58;;;;;;;22.63;11.43;;;;;;;;;;5092797;28;20472;-80
2024/02/12 10:04:24;;;;;;;22.23;10.87;;;;;;;;;;5092573;28;20817;-80
2024/02/12 10:06:56;;;;;;;18.60;10.10;;;;;;;;;;5092733;28;20455;-78
2024/02/12 10:09:23;;;;;;;20.73;10.50;;;;;;;;;;5092663;28;20415;-79
2024/02/12 10:11:48;;;;;;;16.97;9.83;;;;;;;;;;5093011;28;20410;-78
2024/02/12 10:14:15;;;;;;;15.90;9.87;;;;;;;;;;5092670;28;20908;-79
2024/02/12 10:16:44;;;;;;;17.23;9.77;;;;;;;;;;5093103;28;20414;-81
2024/02/12 10:19:10;;;;;;;17.87;10.27;;;;;;;;;;5092716;28;20404;-81
2024/02/12 10:21:37;;;;;;;15.23;9.23;;;;;;;;;;5091699;28;20528;-80
2024/02/12 10:24:03;;;;;;;17.47;9.83;;;;;;;;;;5092963;28;20418;-79
2024/02/12 10:26:29;;;;;;;15.40;10.23;;;;;;;;;;5092953;28;20415;-83
2024/02/12 10:28:58;;;;;;;16.60;9.27;;;;;;;;;;5092989;28;20938;-78
2024/02/12 10:31:24;;;;;;;15.13;9.00;;;;;;;;;;5092733;28;20465;-79
2024/02/12 10:33:53;;;;;;;15.47;9.57;;;;;;;;;;5092802;28;20502;-85
2024/02/12 10:36:20;;;;;;;18.40;9.30;;;;;;;;;;5092741;28;20449;-80
2024/02/12 10:38:50;;;;;;;17.00;9.60;;;;;;;;;;5092710;28;20411;-87
2024/02/12 10:41:29;;;;;;;15.10;10.00;;;;;;;;;;5096556;28;20994;-81
2024/02/12 10:43:55;;;;;;;16.50;11.60;;;;;;;;;;5096495;28;20490;-82
2024/02/12 10:46:21;;;;;;;15.13;9.13;;;;;;;;;;5096181;28;20498;-82
2024/02/12 10:48:47;;;;;;;14.30;9.50;;;;;;;;;;5096209;28;20962;-84
2024/02/12 10:51:19;;;;;;;19.27;9.33;;;;;;;;;;5107493;28;20780;-84
2024/02/12 10:53:45;;;;;;;12.70;9.57;;;;;;;;;;5116603;28;20419;-83
2024/02/12 10:56:12;;;;;;;17.50;10.57;;;;;;;;;;5116522;28;20779;-85
2024/02/12 10:58:41;;;;;;;17.30;10.43;;;;;;;;;;5116596;28;20400;-85
2024/02/12 11:01:12;;;;;;;17.03;10.50;;;;;;;;;;5116454;28;20949;-86
2024/02/12 11:03:38;;;;;;;14.23;9.77;;;;;;;;;;5116104;28;20410;-80
2024/02/12 11:06:08;;;;;;;21.97;10.40;;;;;;;;;;5116102;28;21039;-79
2024/02/12 11:08:39;;;;;;;14.90;9.37;;;;;;;;;;5116171;28;20967;-85
2024/02/12 11:11:13;;;;;;;18.57;10.00;;;;;;;;;;5116182;28;20412;-81
2024/02/12 11:13:42;;;;;;;19.90;11.43;;;;;;;;;;5116063;28;20412;-80
2024/02/12 11:16:12;;;;;;;19.97;11.60;;;;;;;;;;5116177;28;20837;-80
2024/02/12 11:18:38;;;;;;;19.83;12.73;;;;;;;;;;5115853;28;20496;-79
2024/02/12 11:21:05;;;;;;;17.03;11.87;;;;;;;;;;5115194;28;20416;-86
2024/02/12 11:23:34;;;;;;;21.40;11.03;;;;;;;;;;5116170;28;20398;-84
2024/02/12 11:26:00;;;;;;;17.83;10.90;;;;;;;;;;5115799;28;20925;-83
2024/02/12 11:28:33;;;;;;;18.70;12.60;;;;;;;;;;5097825;28;20410;-80
2024/02/12 11:30:59;;;;;;;21.70;12.57;;;;;;;;;;5116084;28;20445;-78
2024/02/12 11:33:26;;;;;;;17.50;11.67;;;;;;;;;;5115558;28;20456;-80
2024/02/12 11:36:05;;;;;;;21.50;13.40;;;;;;;;;;5115540;28;21064;-79
2024/02/12 11:38:50;;;;;;;20.47;12.10;;;;;;;;;;5115694;28;20411;-76
2024/02/12 11:41:16;;;;;;;19.60;11.77;;;;;;;;;;5115558;28;20452;-81
2024/02/12 11:43:46;;;;;;;18.50;14.00;;;;;;;;;;5097355;28;20455;-79
2024/02/12 11:46:15;;;;;;;23.87;13.23;;;;;;;;;;5115264;28;20491;-78
2024/02/12 11:48:41;;;;;;;23.20;12.57;;;;;;;;;;5096912;28;20561;-78
2024/02/12 11:51:08;;;;;;;20.00;12.30;;;;;;;;;;5114986;28;20412;-79
2024/02/12 11:53:38;;;;;;;24.47;13.27;;;;;;;;;;5115191;28;20416;-81
2024/02/12 11:56:04;;;;;;;17.40;12.00;;;;;;;;;;5115206;28;20445;-79
2024/02/12 11:58:30;;;;;;;23.70;13.43;;;;;;;;;;5115044;28;20723;-80
2024/02/12 12:00:58;;;;;;;23.10;12.83;;;;;;;;;;5115031;28;20402;-79
2024/02/12 12:03:24;;;;;;;22.83;14.50;;;;;;;;;;5114548;28;20766;-79
2024/02/12 12:05:52;;;;;;;16.77;12.20;;;;;;;;;;5115063;28;20502;-80
2024/02/12 12:08:22;;;;;;;22.57;13.30;;;;;;;;;;5115018;28;20410;-78
2024/02/12 12:10:48;;;;;;;21.17;13.20;;;;;;;;;;5114999;28;20398;-78
2024/02/12 12:13:17;;;;;;;21.00;13.80;;;;;;;;;;5114955;28;20761;-78
2024/02/12 12:15:43;;;;;;;22.00;12.93;;;;;;;;;;5114749;28;20827;-82
2024/02/12 12:18:09;;;;;;;27.80;15.43;;;;;;;;;;5114433;28;20425;-78
2024/02/12 12:20:36;;;;;;;20.93;12.43;;;;;;;;;;5114757;28;20428;-78
2024/02/12 12:23:09;;;;;;;27.07;14.53;;;;;;;;;;5114861;28;20204;-79
2024/02/12 12:25:36;;;;;;;22.50;13.90;;;;;;;;;;5114764;28;20400;-82
2024/02/12 12:28:05;;;;;;;27.17;16.60;;;;;;;;;;5114742;28;20422;-79
2024/02/12 12:30:32;;;;;;;21.10;14.47;;;;;;;;;;5114390;28;20479;-76
2024/02/12 12:32:58;;;;;;;26.20;15.30;;;;;;;;;;5114251;28;20774;-79
2024/02/12 12:35:24;;;;;;;20.97;13.80;;;;;;;;;;5114347;28;20469;-78
2024/02/12 12:37:53;;;;;;;26.57;16.90;;;;;;;;;;5114390;28;20406;-78
2024/02/12 12:40:19;;;;;;;25.03;15.60;;;;;;;;;;5114297;28;20505;-78
2024/02/12 12:42:49;;;;;;;31.37;16.50;;;;;;;;;;5114434;28;20894;-77
2024/02/12 12:45:16;;;;;;;28.57;18.00;;;;;;;;;;5114302;28;20873;-78
2024/02/12 12:47:42;;;;;;;21.33;15.10;;;;;;;;;;5113565;28;20450;-81
2024/02/12 12:50:08;;;;;;;28.50;17.37;;;;;;;;;;5114098;28;20509;-77
2024/02/12 12:52:38;;;;;;;25.90;15.60;;;;;;;;;;5114134;28;20782;-78
2024/02/12 12:55:04;;;;;;;28.13;15.57;;;;;;;;;;5114095;28;20485;-80
2024/02/12 12:57:31;;;;;;;35.40;16.83;;;;;;;;;;5095851;28;20422;-76
2024/02/12 12:59:59;;;;;;;28.83;16.27;;;;;;;;;;5114019;28;20421;-77
2024/02/12 13:02:25;;;;;;;27.40;16.50;;;;;;;;;;5112965;28;20803;-77
2024/02/12 13:04:52;;;;;;;20.90;15.33;;;;;;;;;;5113891;28;20414;-77
2024/02/12 13:07:18;;;;;;;24.30;15.23;;;;;;;;;;5113832;28;20182;-78
2024/02/12 13:09:44;;;;;;;24.17;14.90;;;;;;;;;;5113730;28;20414;-79
2024/02/12 13:12:12;;;;;;;25.17;14.80;;;;;;;;;;5113713;28;20467;-82
2024/02/12 13:14:41;;;;;;;23.40;14.87;;;;;;;;;;5113789;28;20465;-81
2024/02/12 13:17:07;;;;;;;27.97;15.83;;;;;;;;;;5113380;28;20435;-80
2024/02/12 13:19:33;;;;;;;26.00;14.77;;;;;;;;;;5095268;28;20789;-78
2024/02/12 13:22:02;;;;;;;27.40;15.77;;;;;;;;;;5113477;28;20173;-82
2024/02/12 13:24:29;;;;;;;22.43;15.80;;;;;;;;;;5113531;28;20421;-80
2024/02/12 13:26:58;;;;;;;20.63;13.80;;;;;;;;;;5113755;28;20887;-80
2024/02/12 13:29:24;;;;;;;20.40;13.50;;;;;;;;;;5113358;28;20420;-78
2024/02/12 13:31:50;;;;;;;19.63;11.67;;;;;;;;;;5113075;28;20506;-83
2024/02/12 13:34:16;;;;;;;16.10;11.57;;;;;;;;;;5113273;28;20271;-78
2024/02/12 13:36:44;;;;;;;18.43;13.00;;;;;;;;;;5113370;28;20174;-81
2024/02/12 13:39:14;;;;;;;20.63;13.10;;;;;;;;;;5113426;28;20748;-80
2024/02/12 13:41:43;;;;;;;18.63;13.20;;;;;;;;;;5113883;28;20416;-82
2024/02/12 13:44:09;;;;;;;20.20;11.53;;;;;;;;;;5113675;28;20818;-79
2024/02/12 13:46:34;;;;;;;20.43;13.37;;;;;;;;;;5116047;28;20476;-78
2024/02/12 13:49:02;;;;;;;17.27;11.63;;;;;;;;;;5112505;28;20415;-83
2024/02/12 13:51:28;;;;;;;16.97;11.37;;;;;;;;;;5112878;28;20540;-84
2024/02/12 13:53:54;;;;;;;16.13;10.43;;;;;;;;;;5112835;28;20403;-80
2024/02/12 13:56:24;;;;;;;17.70;12.20;;;;;;;;;;5113257;28;20184;-80
2024/02/12 13:58:50;;;;;;;17.53;9.90;;;;;;;;;;5112863;28;20263;-79
2024/02/12 14:01:19;;;;;;;19.97;11.20;;;;;;;;;;5113069;28;20898;-85
2024/02/12 14:03:46;;;;;;;15.60;10.77;;;;;;;;;;5112667;28;20411;-78
2024/02/12 14:06:16;;;;;;;15.80;10.70;;;;;;;;;;5112990;28;20411;-77
2024/02/12 14:08:42;;;;;;;16.83;10.17;;;;;;;;;;5113008;28;20805;-80
2024/02/12 14:11:07;;;;;;;17.20;10.80;;;;;;;;;;5094850;28;20425;-79
2024/02/12 14:13:36;;;;;;;14.60;9.93;;;;;;;;;;5105247;28;20425;-83
2024/02/12 14:16:05;;;;;;;16.10;10.13;;;;;;;;;;5094886;28;20228;-81
2024/02/12 14:18:37;;;;;;;16.77;9.90;;;;;;;;;;5096183;28;20410;-79
2024/02/12 14:21:03;;;;;;;13.50;8.90;;;;;;;;;;5095318;28;20464;-80
2024/02/12 14:23:34;;;;;;;16.60;10.50;;;;;;;;;;5096626;28;20794;-84
2024/02/12 14:26:00;;;;;;;17.30;11.13;;;;;;;;;;5096669;28;20422;-79
2024/02/12 14:28:26;;;;;;;16.43;10.80;;;;;;;;;;5096418;28;20914;-82
2024/02/12 14:30:53;;;;;;;15.27;9.20;;;;;;;;;;5095114;28;20788;-80
2024/02/12 14:33:19;;;;;;;18.20;11.00;;;;;;;;;;5114476;28;20428;-78